Date,TemperatureHighF,TemperatureAvgF,TemperatureLowF,DewpointHighF,DewpointAvgF,DewpointLowF,HumidityHigh,HumidityAvg,HumidityLow,PressureMaxIn,PressureMinIn,WindSpeedMaxMPH,WindSpeedAvgMPH,GustSpeedMaxMPH,PrecipitationSumIn
2013-8-1,83.2,64.1,46.5,55.0,50.8,43.0,92,65,37,30.00,29.90,7,1,0,0.00
2013-8-2,88.4,67.1,47.4,58.0,52.4,44.0,91,63,31,29.94,29.83,9,2,0,0.00
2013-8-3,83.0,65.7,56.0,58.0,54.5,52.0,88,70,41,29.95,29.84,9,1,0,0.00
2013-8-4,81.6,64.0,53.1,58.0,53.0,50.0,92,71,43,29.98,29.88,6,1,0,0.00
2013-8-5,84.3,62.7,52.9,57.0,52.3,49.0,88,71,39,29.99,29.87,10,1,0,0.00
2013-8-6,83.2,67.6,54.5,56.0,52.7,50.0,85,62,36,30.00,29.91,8,2,0,0.00
2013-8-7,76.5,63.1,55.4,56.0,53.1,50.0,84,71,49,30.06,29.99,6,2,0,0.00
2013-8-8,83.4,65.0,55.6,57.0,53.3,51.0,85,68,38,30.00,29.87,5,1,0,0.00
2013-8-9,83.4,63.7,53.9,56.0,52.5,50.0,89,70,37,29.96,29.85,7,1,0,0.00
2013-8-10,85.5,66.6,54.5,58.0,54.0,50.0,87,67,34,30.00,29.92,5,1,0,0.00
2013-8-11,89.3,67.7,53.6,59.0,54.1,48.0,91,66,25,29.99,29.86,7,1,0,0.00
2013-8-12,89.7,65.8,49.8,59.0,52.6,46.0,93,67,22,29.97,29.86,6,1,0,0.00
2013-8-13,96.1,71.3,50.7,56.0,50.7,44.0,91,56,19,29.96,29.83,6,1,0,0.00
2013-8-14,91.4,70.8,51.1,57.0,53.3,48.0,92,59,28,29.94,29.81,10,1,0,0.00
2013-8-15,96.1,73.0,53.6,63.0,57.5,51.0,93,63,27,29.91,29.83,6,1,0,0.00
2013-8-16,95.6,75.1,59.9,64.0,57.0,43.0,93,60,24,29.94,29.86,7,1,0,0.00
2013-8-17,83.8,69.9,54.1,60.0,56.5,50.0,91,65,44,29.95,29.79,5,1,0,0.00
2013-8-18,101.5,75.8,57.0,63.0,57.9,54.0,92,60,23,29.86,29.71,5,0,0,0.00
2013-8-19,96.6,75.2,62.3,64.0,59.1,56.0,84,61,27,29.87,29.74,2,0,0,0.00
2013-8-20,89.5,71.2,59.5,61.0,56.7,52.0,85,63,38,29.86,29.74,5,1,0,0.00
2013-8-21,89.7,68.7,56.5,58.0,52.7,44.0,89,61,28,29.90,29.78,5,0,0,0.00
2013-8-22,84.3,65.9,52.0,57.0,51.8,46.0,89,63,34,29.93,29.82,5,1,0,0.00
2013-8-23,85.3,66.2,51.0,59.0,53.9,47.0,91,68,39,29.89,29.74,8,1,0,0.00
2013-8-24,88.0,67.7,50.2,57.0,53.4,47.0,94,64,31,29.84,29.77,7,1,0,0.00
2013-8-25,84.7,69.4,55.6,60.0,56.4,52.0,91,66,40,29.89,29.83,10,1,0,0.00
2013-8-26,89.7,70.8,56.7,58.0,54.4,51.0,89,61,30,29.97,29.83,9,0,0,0.00
2013-8-27,93.4,69.8,50.1,55.0,51.2,47.0,91,57,23,29.87,29.74,8,1,0,0.00
2013-8-28,91.4,69.7,50.7,60.0,55.3,47.0,93,64,32,29.89,29.80,8,1,0,0.00
2013-8-29,91.2,73.6,58.6,63.0,58.7,54.0,91,64,33,30.00,29.89,6,1,0,0.00
2013-8-30,98.2,76.3,56.0,61.0,56.2,50.0,93,56,21,30.00,29.84,5,0,0,0.00
2013-8-31,94.0,72.4,53.3,58.0,53.0,43.0,91,56,20,29.92,29.81,8,1,0,0.00